createdAt,value
2022-07-27T00:01:05.520Z,97733.59
2022-07-27T00:03:33.316Z,97731.03
2022-07-27T00:06:01.202Z,97735.66
2022-07-27T00:08:29.165Z,97737.06
2022-07-27T00:10:58.392Z,97730.50
2022-07-27T00:13:26.298Z,97735.75
2022-07-27T00:15:54.549Z,97741.00
2022-07-27T00:18:22.394Z,97729.97
2022-07-27T00:20:50.335Z,97732.13
2022-07-27T00:23:18.177Z,97746.09
2022-07-27T00:25:46.297Z,97741.28
2022-07-27T00:28:15.589Z,97747.16
2022-07-27T00:30:43.448Z,97746.31
2022-07-27T00:33:11.279Z,97749.69
2022-07-27T00:35:45.587Z,97751.31
2022-07-27T00:38:13.466Z,97753.72
2022-07-27T00:40:41.299Z,97743.22
2022-07-27T00:43:09.173Z,97744.13
2022-07-27T00:45:38.947Z,97739.00
2022-07-27T00:48:07.338Z,97742.91
2022-07-27T00:50:35.263Z,97744.06
2022-07-27T00:53:04.949Z,97740.13
2022-07-27T00:55:33.103Z,97741.44
2022-07-27T00:58:01.307Z,97737.97
2022-07-27T01:00:29.163Z,97740.22
2022-07-27T01:02:58.502Z,97736.97
2022-07-27T01:05:35.882Z,97736.38
2022-07-27T01:08:06.830Z,97729.50
2022-07-27T01:10:35.035Z,97735.03
2022-07-27T01:13:03.209Z,97733.81
2022-07-27T01:15:31.087Z,97734.97
2022-07-27T01:18:04.774Z,97728.50
2022-07-27T01:20:33.809Z,97733.66
2022-07-27T01:23:03.263Z,97729.34
2022-07-27T01:25:31.158Z,97726.50
2022-07-27T01:27:59.043Z,97731.34
2022-07-27T01:30:30.828Z,97736.50
2022-07-27T01:33:02.583Z,97730.25
2022-07-27T01:35:30.654Z,97727.00
2022-07-27T01:37:58.909Z,97728.25
2022-07-27T01:40:28.182Z,97726.50
2022-07-27T01:42:56.099Z,97729.88
2022-07-27T01:45:23.929Z,97724.88
2022-07-27T01:47:52.096Z,97716.84
2022-07-27T01:50:20.196Z,97721.03
2022-07-27T01:52:48.696Z,97720.97
2022-07-27T01:55:16.880Z,97715.41
2022-07-27T01:57:46.050Z,97714.50
2022-07-27T02:00:14.345Z,97715.41
2022-07-27T02:02:42.585Z,97720.81
2022-07-27T02:05:12.169Z,97733.25
2022-07-27T02:07:40.795Z,97736.41
2022-07-27T02:10:09.515Z,97731.19
2022-07-27T02:12:36.419Z,97736.28
2022-07-27T02:15:07.287Z,97737.28
2022-07-27T02:17:35.250Z,97744.03
2022-07-27T02:20:03.499Z,97737.44
2022-07-27T02:22:31.354Z,97738.53
2022-07-27T02:24:59.394Z,97730.50
2022-07-27T02:27:27.616Z,97728.94
2022-07-27T02:29:55.365Z,97734.50
2022-07-27T02:32:24.724Z,97729.69
2022-07-27T02:34:52.908Z,97730.47
2022-07-27T02:37:20.780Z,97719.88
2022-07-27T02:39:48.565Z,97728.75
2022-07-27T02:42:16.478Z,97732.22
2022-07-27T02:44:44.620Z,97731.94
2022-07-27T02:47:12.475Z,97732.22
2022-07-27T02:49:41.634Z,97735.66
2022-07-27T02:52:09.466Z,97740.44
2022-07-27T02:54:37.260Z,97736.63
2022-07-27T02:57:05.469Z,97738.91
2022-07-27T02:59:33.333Z,97738.06
2022-07-27T03:02:01.299Z,97737.34
2022-07-27T03:04:29.244Z,97743.28
2022-07-27T03:06:58.408Z,97739.19
2022-07-27T03:09:32.747Z,97751.66
2022-07-27T03:12:01.684Z,97743.47
2022-07-27T03:14:29.566Z,97748.28
2022-07-27T03:16:57.340Z,97743.91
2022-07-27T03:19:30.053Z,97746.72
2022-07-27T03:21:59.603Z,97741.34
2022-07-27T03:24:27.673Z,97749.59
2022-07-27T03:26:55.513Z,97748.03
2022-07-27T03:29:23.300Z,97746.31
2022-07-27T03:31:51.136Z,97734.97
2022-07-27T03:34:19.006Z,97744.63
2022-07-27T03:36:46.864Z,97750.59
2022-07-27T03:39:17.011Z,97749.16
2022-07-27T03:41:45.080Z,97749.88
2022-07-27T03:44:12.969Z,97755.81
2022-07-27T03:46:40.838Z,97752.16
2022-07-27T03:49:14.509Z,97751.41
2022-07-27T03:51:43.106Z,97752.38
2022-07-27T03:54:11.207Z,97746.75
2022-07-27T03:56:40.471Z,97754.09
2022-07-27T03:59:08.420Z,97756.91
2022-07-27T04:01:36.933Z,97750.69
2022-07-27T04:04:05.026Z,97761.03
2022-07-27T04:06:32.813Z,97760.00
2022-07-27T04:09:12.355Z,97755.63
2022-07-27T04:11:50.597Z,97759.19
2022-07-27T04:14:18.895Z,97755.06
2022-07-27T04:16:47.425Z,97755.34
2022-07-27T04:19:15.893Z,97757.88
2022-07-27T04:21:43.909Z,97755.13
2022-07-27T04:24:12.053Z,97764.13
2022-07-27T04:26:39.849Z,97760.44
2022-07-27T04:29:09.399Z,97752.97
2022-07-27T04:31:37.660Z,97761.88
2022-07-27T04:34:05.474Z,97757.63
2022-07-27T04:36:33.359Z,97754.84
2022-07-27T04:39:01.197Z,97766.69
2022-07-27T04:41:29.645Z,97768.22
2022-07-27T04:43:58.631Z,97757.66
2022-07-27T04:46:29.716Z,97757.81
2022-07-27T04:48:57.842Z,97755.66
2022-07-27T04:51:25.841Z,97763.84
2022-07-27T04:53:58.602Z,97766.41
2022-07-27T04:56:26.738Z,97759.47
2022-07-27T04:58:54.733Z,97767.00
2022-07-27T05:01:29.235Z,97766.41
2022-07-27T05:04:04.970Z,97765.28
2022-07-27T05:06:33.114Z,97767.84
2022-07-27T05:09:01.001Z,97784.13
2022-07-27T05:11:28.871Z,97780.44
2022-07-27T05:13:56.695Z,97787.22
2022-07-27T05:16:28.496Z,97786.22
2022-07-27T05:18:57.167Z,97788.91
2022-07-27T05:21:27.329Z,97788.78
2022-07-27T05:23:55.696Z,97786.22
2022-07-27T05:26:23.608Z,97790.91
2022-07-27T05:28:51.428Z,97786.22
2022-07-27T05:31:19.789Z,97794.41
2022-07-27T05:33:49.786Z,97798.41
2022-07-27T05:36:19.200Z,97797.81
2022-07-27T05:38:48.375Z,97796.41
2022-07-27T05:41:16.347Z,97807.19
2022-07-27T05:43:44.662Z,97802.94
2022-07-27T05:46:12.531Z,97811.00
2022-07-27T05:48:40.896Z,97815.94
2022-07-27T05:51:09.205Z,97809.44
2022-07-27T05:53:37.121Z,97810.16
2022-07-27T05:56:07.956Z,97816.63
2022-07-27T05:58:35.798Z,97823.47
2022-07-27T06:01:03.747Z,97820.47
2022-07-27T06:03:31.787Z,97819.19
2022-07-27T06:06:13.898Z,97813.63
2022-07-27T06:08:41.693Z,97818.16
2022-07-27T06:11:11.056Z,97819.41
2022-07-27T06:13:42.003Z,97818.78
2022-07-27T06:16:10.390Z,97821.34
2022-07-27T06:18:38.314Z,97824.16
2022-07-27T06:21:06.297Z,97819.34
2022-07-27T06:23:34.091Z,97833.97
2022-07-27T06:26:02.059Z,97835.53
2022-07-27T06:28:31.605Z,97838.63
2022-07-27T06:30:59.691Z,97835.03
2022-07-27T06:33:29.414Z,97838.84
2022-07-27T06:35:57.654Z,97835.22
2022-07-27T06:38:26.210Z,97837.16
2022-07-27T06:40:54.153Z,97839.66
2022-07-27T06:43:22.023Z,97831.47
2022-07-27T06:45:51.490Z,97830.66
2022-07-27T06:48:21.243Z,97831.88
2022-07-27T06:50:49.373Z,97830.19
2022-07-27T06:53:20.823Z,97837.66
2022-07-27T06:55:49.729Z,97835.72
2022-07-27T06:58:17.805Z,97836.88
2022-07-27T07:00:45.667Z,97839.00
2022-07-27T07:03:15.297Z,97829.19
2022-07-27T07:05:44.870Z,97832.28
2022-07-27T07:08:13.323Z,97839.84
2022-07-27T07:10:41.261Z,97835.50
2022-07-27T07:13:09.573Z,97834.31
2022-07-27T07:15:38.426Z,97832.25
2022-07-27T07:18:06.808Z,97839.66
2022-07-27T07:20:35.965Z,97841.34
2022-07-27T07:23:04.107Z,97844.09
2022-07-27T07:25:32.561Z,97851.44
2022-07-27T07:28:01.013Z,97850.16
2022-07-27T07:30:29.116Z,97849.50
2022-07-27T07:32:56.910Z,97848.72
2022-07-27T07:35:24.770Z,97835.69
2022-07-27T07:37:54.388Z,97847.97
2022-07-27T07:43:12.757Z,97843.63
2022-07-27T07:45:50.329Z,97840.16
2022-07-27T07:48:19.126Z,97842.00
2022-07-27T07:50:51.461Z,97848.13
2022-07-27T07:53:22.494Z,97847.28
2022-07-27T07:55:51.484Z,97850.88
2022-07-27T07:58:20.047Z,97849.41
2022-07-27T08:00:50.094Z,97848.75
2022-07-27T08:03:26.553Z,97848.28
2022-07-27T08:05:54.697Z,97847.38
2022-07-27T08:08:24.998Z,97842.50
2022-07-27T08:10:52.905Z,97843.28
2022-07-27T08:13:22.519Z,97844.75
2022-07-27T08:15:52.819Z,97849.31
2022-07-27T08:18:21.133Z,97848.56
2022-07-27T08:20:49.422Z,97849.25
2022-07-27T08:23:18.190Z,97854.25
2022-07-27T08:25:47.770Z,97850.84
2022-07-27T08:28:15.782Z,97842.03
2022-07-27T08:30:44.019Z,97841.16
2022-07-27T08:33:12.311Z,97837.53
2022-07-27T08:35:40.107Z,97834.03
2022-07-27T08:38:09.424Z,97834.91
2022-07-27T08:40:43.683Z,97842.81
2022-07-27T08:43:21.743Z,97845.53
2022-07-27T08:45:56.711Z,97854.56
2022-07-27T08:48:25.331Z,97850.00
2022-07-27T08:50:53.160Z,97847.22
2022-07-27T08:53:21.019Z,97849.03
2022-07-27T08:55:48.965Z,97848.84
2022-07-27T08:58:18.557Z,97846.78
2022-07-27T09:00:48.286Z,97846.75
2022-07-27T09:03:19.708Z,97842.91
2022-07-27T09:05:49.331Z,97851.03
2022-07-27T09:08:21.693Z,97849.00
2022-07-27T09:10:49.594Z,97849.34
2022-07-27T09:13:23.231Z,97847.59
2022-07-27T09:18:39.938Z,97854.03
2022-07-27T09:21:12.050Z,97854.19
2022-07-27T09:23:40.299Z,97851.28
2022-07-27T09:26:29.832Z,97855.53
2022-07-27T09:29:01.733Z,97853.47
2022-07-27T09:31:30.285Z,97855.03
2022-07-27T09:34:00.225Z,97851.81
2022-07-27T09:36:29.209Z,97855.25
2022-07-27T09:39:02.566Z,97856.25
2022-07-27T09:41:40.140Z,97866.94
2022-07-27T09:44:31.197Z,97862.53
2022-07-27T09:46:57.204Z,97849.63
2022-07-27T09:49:31.962Z,97860.19
2022-07-27T09:52:01.653Z,97854.41
2022-07-27T09:54:42.196Z,97858.69
2022-07-27T09:57:10.246Z,97855.75
2022-07-27T09:59:39.423Z,97851.66
2022-07-27T10:02:07.641Z,97850.94
2022-07-27T10:04:36.682Z,97855.09
2022-07-27T10:07:08.154Z,97840.09
2022-07-27T10:09:37.522Z,97835.25
2022-07-27T10:12:05.784Z,97843.59
2022-07-27T10:14:35.454Z,97844.97
2022-07-27T10:17:12.963Z,97840.72
2022-07-27T10:19:50.612Z,97841.19
2022-07-27T10:22:18.458Z,97844.19
2022-07-27T10:24:52.786Z,97843.16
2022-07-27T10:27:22.102Z,97838.47
2022-07-27T10:29:50.026Z,97839.22
2022-07-27T10:32:25.732Z,97841.66
2022-07-27T10:34:53.695Z,97838.63
2022-07-27T10:37:26.661Z,97832.84
2022-07-27T10:40:16.063Z,97836.03
2022-07-27T10:42:46.078Z,97834.63
2022-07-27T10:45:16.536Z,97835.84
2022-07-27T10:47:47.153Z,97851.09
2022-07-27T10:50:30.922Z,97837.22
2022-07-27T10:53:00.703Z,97846.09
2022-07-27T10:55:50.492Z,97840.91
2022-07-27T10:58:43.512Z,97848.59
2022-07-27T11:01:14.746Z,97843.56
2022-07-27T11:03:52.541Z,97852.22
2022-07-27T11:07:15.048Z,97841.66
2022-07-27T11:10:03.013Z,97836.66
2022-07-27T11:12:14.879Z,97837.56
2022-07-27T11:14:50.926Z,97836.56
2022-07-27T11:17:50.816Z,97843.44
2022-07-27T11:20:14.187Z,97844.38
2022-07-27T11:25:30.245Z,97844.16
2022-07-27T11:27:58.190Z,97847.91
2022-07-27T11:30:27.338Z,97842.50
2022-07-27T11:32:55.526Z,97841.28
2022-07-27T11:35:24.782Z,97839.16
2022-07-27T11:38:00.176Z,97840.19
2022-07-27T11:43:37.615Z,97835.78
2022-07-27T11:46:16.046Z,97847.19
2022-07-27T11:49:09.077Z,97835.69
2022-07-27T11:52:08.063Z,97837.69
2022-07-27T11:54:40.908Z,97827.88
2022-07-27T11:57:10.295Z,97830.75
2022-07-27T11:59:38.615Z,97826.16
2022-07-27T12:02:07.641Z,97828.72
2022-07-27T12:04:36.786Z,97825.16
2022-07-27T12:07:07.743Z,97813.13
2022-07-27T12:09:38.789Z,97817.78
2022-07-27T12:12:11.356Z,97797.81
2022-07-27T12:14:41.385Z,97796.38
2022-07-27T12:17:18.492Z,97810.84
2022-07-27T12:19:57.435Z,97798.06
2022-07-27T12:22:31.483Z,97815.06
2022-07-27T12:24:59.690Z,97807.66
2022-07-27T12:27:29.100Z,97803.41
2022-07-27T12:29:58.616Z,97802.19
2022-07-27T12:32:26.649Z,97805.50
2022-07-27T12:34:54.785Z,97811.38
2022-07-27T12:37:22.781Z,97805.75
2022-07-27T12:39:52.249Z,97803.13
2022-07-27T12:42:20.191Z,97806.44
2022-07-27T12:44:48.583Z,97805.09
2022-07-27T12:47:36.285Z,97807.38
2022-07-27T12:50:06.218Z,97793.09
2022-07-27T12:52:34.504Z,97787.41
2022-07-27T12:55:04.034Z,97781.91
2022-07-27T12:57:53.955Z,97785.25
2022-07-27T13:00:20.209Z,97774.06
2022-07-27T13:02:48.497Z,97783.41
2022-07-27T13:05:16.530Z,97782.97
2022-07-27T13:07:46.074Z,97783.59
2022-07-27T13:10:18.351Z,97786.16
2022-07-27T13:12:46.411Z,97784.38
2022-07-27T13:15:14.609Z,97784.56
2022-07-27T13:17:43.031Z,97783.88
2022-07-27T13:20:12.503Z,97785.44
2022-07-27T13:22:40.836Z,97778.47
2022-07-27T13:25:15.516Z,97784.28
2022-07-27T13:27:46.554Z,97789.91
2022-07-27T13:30:15.877Z,97801.25
2022-07-27T13:32:44.116Z,97793.00
2022-07-27T13:35:12.735Z,97796.75
2022-07-27T13:37:40.699Z,97786.41
2022-07-27T13:40:09.813Z,97791.13
2022-07-27T13:42:39.415Z,97783.53
2022-07-27T13:45:17.867Z,97784.72
2022-07-27T13:47:45.777Z,97783.59
2022-07-27T13:50:18.910Z,97791.69
2022-07-27T13:52:48.240Z,97789.16
2022-07-27T13:55:16.613Z,97790.00
2022-07-27T13:57:44.659Z,97795.06
2022-07-27T14:00:14.749Z,97787.88
2022-07-27T14:02:42.915Z,97780.03
2022-07-27T14:05:12.904Z,97785.28
2022-07-27T14:07:41.849Z,97789.13
2022-07-27T14:10:30.185Z,97790.56
2022-07-27T14:12:59.343Z,97789.25
2022-07-27T14:15:29.158Z,97790.56
2022-07-27T14:17:57.321Z,97784.44
2022-07-27T14:20:25.180Z,97792.59
2022-07-27T14:22:53.165Z,97791.88
2022-07-27T14:25:21.189Z,97795.16
2022-07-27T14:27:49.395Z,97785.28
2022-07-27T14:30:20.945Z,97790.50
2022-07-27T14:32:50.523Z,97779.63
2022-07-27T14:35:19.007Z,97778.84
2022-07-27T14:37:51.228Z,97780.00
2022-07-27T14:40:27.783Z,97782.22
2022-07-27T14:42:56.509Z,97790.56
2022-07-27T14:45:24.470Z,97780.00
2022-07-27T14:48:18.744Z,97776.19
2022-07-27T14:50:50.947Z,97778.56
2022-07-27T14:53:18.971Z,97777.03
2022-07-27T14:55:46.978Z,97761.31
2022-07-27T14:58:15.179Z,97764.69
2022-07-27T15:00:43.131Z,97760.97
2022-07-27T15:03:14.672Z,97746.75
2022-07-27T15:05:49.496Z,97741.50
2022-07-27T15:08:20.017Z,97749.25
2022-07-27T15:10:48.313Z,97746.03
2022-07-27T15:13:17.063Z,97737.38
2022-07-27T15:15:48.413Z,97736.13
2022-07-27T15:18:18.899Z,97734.69
2022-07-27T15:20:51.926Z,97742.47
2022-07-27T15:23:20.060Z,97746.47
2022-07-27T15:25:48.243Z,97749.56
2022-07-27T15:28:16.421Z,97749.88
2022-07-27T15:30:44.587Z,97742.47
2022-07-27T15:33:12.416Z,97744.47
2022-07-27T15:35:40.303Z,97745.72
2022-07-27T15:38:09.522Z,97746.75
2022-07-27T15:40:41.675Z,97741.19
2022-07-27T15:43:12.496Z,97731.06
2022-07-27T15:45:40.595Z,97737.09
2022-07-27T15:48:09.530Z,97738.63
2022-07-27T15:50:37.497Z,97730.72
2022-07-27T15:53:05.768Z,97730.75
2022-07-27T15:55:35.284Z,97717.47
2022-07-27T15:58:03.463Z,97724.25
2022-07-27T16:00:35.550Z,97714.69
2022-07-27T16:03:06.927Z,97717.63
2022-07-27T16:05:38.608Z,97711.56
2022-07-27T16:08:09.145Z,97724.84
2022-07-27T16:10:38.937Z,97717.84
2022-07-27T16:13:07.222Z,97714.44
2022-07-27T16:15:52.816Z,97712.75
2022-07-27T16:18:20.757Z,97718.94
2022-07-27T16:20:48.733Z,97719.53
2022-07-27T16:23:21.095Z,97711.75
2022-07-27T16:26:03.914Z,97707.72
2022-07-27T16:28:32.962Z,97707.28
2022-07-27T16:31:00.841Z,97715.09
2022-07-27T16:33:28.823Z,97705.06
2022-07-27T16:36:03.941Z,97703.19
2022-07-27T16:38:39.113Z,97691.97
2022-07-27T16:41:19.334Z,97692.50
2022-07-27T16:43:47.701Z,97687.06
2022-07-27T16:46:15.642Z,97688.47
2022-07-27T16:48:44.004Z,97686.28
2022-07-27T16:51:13.550Z,97694.19
2022-07-27T16:53:42.381Z,97689.13
2022-07-27T16:56:10.345Z,97683.22
2022-07-27T16:58:39.765Z,97694.44
2022-07-27T17:01:07.679Z,97687.25
2022-07-27T17:03:35.905Z,97688.47
2022-07-27T17:06:06.322Z,97692.75
2022-07-27T17:08:34.563Z,97691.44
2022-07-27T17:11:02.858Z,97704.56
2022-07-27T17:13:34.152Z,97702.56
2022-07-27T17:16:07.378Z,97698.69
2022-07-27T17:18:40.482Z,97703.41
2022-07-27T17:21:09.545Z,97703.41
2022-07-27T17:23:38.926Z,97705.84
2022-07-27T17:26:07.919Z,97702.56
2022-07-27T17:28:38.918Z,97704.25
2022-07-27T17:31:11.607Z,97704.34
2022-07-27T17:33:40.092Z,97706.03
2022-07-27T17:36:14.065Z,97718.56
2022-07-27T17:38:43.420Z,97705.38
2022-07-27T17:41:11.305Z,97706.94
2022-07-27T17:43:39.650Z,97696.97
2022-07-27T17:46:09.255Z,97696.69
2022-07-27T17:48:37.284Z,97695.94
2022-07-27T17:51:05.524Z,97704.75
2022-07-27T17:53:33.399Z,97691.88
2022-07-27T17:56:02.773Z,97703.31
2022-07-27T17:58:30.896Z,97704.34
2022-07-27T18:00:59.007Z,97705.97
2022-07-27T18:03:29.607Z,97704.81
2022-07-27T18:05:58.924Z,97712.41
2022-07-27T18:08:26.797Z,97704.09
2022-07-27T18:10:54.924Z,97711.75
2022-07-27T18:13:22.754Z,97708.81
2022-07-27T18:15:51.420Z,97712.50
2022-07-27T18:18:20.715Z,97713.03
2022-07-27T18:20:52.881Z,97711.13
2022-07-27T18:23:20.945Z,97709.59
2022-07-27T18:25:48.935Z,97709.84
2022-07-27T18:28:17.213Z,97718.75
2022-07-27T18:30:46.017Z,97718.09
2022-07-27T18:33:14.520Z,97719.94
2022-07-27T18:35:43.134Z,97718.59
2022-07-27T18:38:12.805Z,97726.09
2022-07-27T18:40:42.408Z,97727.97
2022-07-27T18:43:10.725Z,97724.16
2022-07-27T18:45:38.660Z,97719.34
2022-07-27T18:48:08.450Z,97716.31
2022-07-27T18:50:39.352Z,97719.06
2022-07-27T18:53:07.841Z,97724.31
2022-07-27T18:55:37.291Z,97720.66
2022-07-27T18:58:05.242Z,97724.19
2022-07-27T19:00:33.624Z,97724.22
2022-07-27T19:03:01.965Z,97729.13
2022-07-27T19:05:40.531Z,97730.31
2022-07-27T19:08:12.864Z,97728.31
2022-07-27T19:10:43.045Z,97731.16
2022-07-27T19:13:11.046Z,97732.84
2022-07-27T19:15:39.079Z,97732.47
2022-07-27T19:18:07.375Z,97736.25
2022-07-27T19:20:36.462Z,97732.84
2022-07-27T19:23:04.513Z,97735.72
2022-07-27T19:25:33.775Z,97739.09
2022-07-27T19:28:03.846Z,97741.47
2022-07-27T19:30:32.075Z,97738.22
2022-07-27T19:33:00.395Z,97748.09
2022-07-27T19:35:28.404Z,97746.72
2022-07-27T19:37:56.523Z,97751.28
2022-07-27T19:43:13.710Z,97753.13
2022-07-27T19:45:41.750Z,97756.69
2022-07-27T19:48:09.812Z,97756.00
2022-07-27T19:50:37.733Z,97754.56
2022-07-27T19:53:06.117Z,97760.31
2022-07-27T19:55:34.674Z,97758.34
2022-07-27T19:58:02.487Z,97763.75
2022-07-27T20:00:31.988Z,97762.72
2022-07-27T20:03:00.247Z,97763.22
2022-07-27T20:05:28.366Z,97768.09
2022-07-27T20:07:56.282Z,97765.56
2022-07-27T20:10:25.388Z,97763.69
2022-07-27T20:12:53.658Z,97762.13
2022-07-27T20:15:22.561Z,97767.53
2022-07-27T20:17:52.199Z,97757.25
2022-07-27T20:20:20.299Z,97764.13
2022-07-27T20:22:48.264Z,97759.75
2022-07-27T20:25:16.173Z,97769.88
2022-07-27T20:27:44.174Z,97763.63
2022-07-27T20:30:14.584Z,97765.78
2022-07-27T20:32:42.451Z,97775.13
2022-07-27T20:35:11.719Z,97766.88
2022-07-27T20:37:39.677Z,97770.38
2022-07-27T20:40:11.662Z,97766.81
2022-07-27T20:42:40.221Z,97770.22
2022-07-27T20:45:11.396Z,97773.00
2022-07-27T20:47:39.554Z,97768.59
2022-07-27T20:50:08.721Z,97777.13
2022-07-27T20:52:37.961Z,97773.06
2022-07-27T20:55:06.795Z,97776.91
2022-07-27T20:57:34.989Z,97778.34
2022-07-27T21:00:03.003Z,97774.56
2022-07-27T21:02:30.948Z,97776.25
2022-07-27T21:04:59.474Z,97775.56
2022-07-27T21:07:27.933Z,97783.66
2022-07-27T21:09:57.133Z,97783.84
2022-07-27T21:12:24.987Z,97782.31
2022-07-27T21:14:52.861Z,97776.69
2022-07-27T21:17:20.691Z,97778.00
2022-07-27T21:19:48.943Z,97785.22
2022-07-27T21:22:16.798Z,97774.59
2022-07-27T21:24:44.277Z,97779.91
2022-07-27T21:27:15.574Z,97779.84
2022-07-27T21:29:48.928Z,97780.34
2022-07-27T21:32:17.010Z,97784.88
2022-07-27T21:34:45.601Z,97785.22
2022-07-27T21:37:13.723Z,97784.47
2022-07-27T21:39:41.622Z,97780.63
2022-07-27T21:42:09.543Z,97786.31
2022-07-27T21:44:39.385Z,97785.09
2022-07-27T21:47:11.573Z,97780.00
2022-07-27T21:49:42.020Z,97779.47
2022-07-27T21:52:11.364Z,97779.84
2022-07-27T21:54:40.124Z,97785.06
2022-07-27T21:57:08.189Z,97782.09
2022-07-27T21:59:36.036Z,97780.38
2022-07-27T22:02:05.269Z,97783.38
2022-07-27T22:04:33.230Z,97782.38
2022-07-27T22:07:01.173Z,97788.28
2022-07-27T22:09:29.363Z,97782.22
2022-07-27T22:11:57.185Z,97785.16
2022-07-27T22:14:25.050Z,97788.91
2022-07-27T22:16:53.963Z,97786.13
2022-07-27T22:19:23.564Z,97793.22
2022-07-27T22:21:51.884Z,97785.78
2022-07-27T22:24:20.462Z,97784.19
2022-07-27T22:26:49.213Z,97785.59
2022-07-27T22:29:17.112Z,97780.63
2022-07-27T22:31:45.080Z,97772.84
2022-07-27T22:34:13.193Z,97776.44
2022-07-27T22:36:42.594Z,97776.53
2022-07-27T22:39:10.776Z,97780.97
2022-07-27T22:41:38.815Z,97788.22
2022-07-27T22:44:06.728Z,97772.03
2022-07-27T22:46:34.769Z,97777.75
2022-07-27T22:49:02.876Z,97774.38
2022-07-27T22:51:50.386Z,97782.88
2022-07-27T22:54:20.104Z,97781.88
2022-07-27T22:56:48.322Z,97785.31
2022-07-27T22:59:16.141Z,97785.31
2022-07-27T23:01:47.223Z,97781.03
2022-07-27T23:04:17.446Z,97778.38
2022-07-27T23:06:45.768Z,97789.56
2022-07-27T23:09:13.956Z,97792.16
2022-07-27T23:11:43.289Z,97794.25
2022-07-27T23:14:11.401Z,97801.09
2022-07-27T23:16:39.714Z,97801.38
2022-07-27T23:19:07.885Z,97797.59
2022-07-27T23:21:35.738Z,97804.09
2022-07-27T23:24:05.579Z,97793.44
2022-07-27T23:26:33.608Z,97796.59
2022-07-27T23:29:03.080Z,97798.00
2022-07-27T23:31:31.052Z,97799.97
2022-07-27T23:33:59.268Z,97801.66
2022-07-27T23:36:27.178Z,97807.03
2022-07-27T23:38:55.077Z,97810.19
2022-07-27T23:41:22.916Z,97807.03
2022-07-27T23:43:50.762Z,97801.94
2022-07-27T23:46:20.081Z,97803.31
2022-07-27T23:48:48.408Z,97811.88
2022-07-27T23:51:19.348Z,97822.53
2022-07-27T23:53:47.624Z,97804.53
2022-07-27T23:56:15.657Z,97805.50
2022-07-27T23:58:43.509Z,97814.16
